Time;durP1;ratioP1;P1;durP2;ratioP2;P2;SDS_P1;SDS_P2;PMS_P1;PMS_P2;Temp;Humidity;BMP_temperature;BMP_pressure;BME280_temperature;BME280_humidity;BME280_pressure;Samples;Min_cycle;Max_cycle;Signal;HPM_P1;HPM_P2
2023/07/26 04:22:32;;;;;;;17.95;12.10;;;;;;;12.96;100.00;100002.47;5109788;27;20326;-66
2023/07/26 04:24:58;;;;;;;15.43;10.40;;;;;;;12.97;100.00;99986.22;5109813;28;20056;-65
2023/07/26 04:27:23;;;;;;;13.73;9.70;;;;;;;12.98;100.00;99990.56;5109748;28;20032;-65
2023/07/26 04:29:49;;;;;;;14.70;9.60;;;;;;;13.08;100.00;99998.22;5109487;28;20036;-66
2023/07/26 04:32:14;;;;;;;16.17;9.43;;;;;;;13.09;100.00;99999.06;5109611;28;20093;-65
2023/07/26 04:34:39;;;;;;;13.75;9.32;;;;;;;13.16;100.00;99999.91;5109725;28;20039;-66
2023/07/26 04:37:05;;;;;;;10.73;8.57;;;;;;;13.16;100.00;100010.63;5109530;28;20048;-65
2023/07/26 04:39:30;;;;;;;15.30;9.88;;;;;;;13.17;100.00;100006.91;5108304;28;20036;-66
2023/07/26 04:41:56;;;;;;;11.15;8.00;;;;;;;13.21;100.00;100009.03;5109148;28;20032;-66
2023/07/26 04:44:21;;;;;;;11.85;8.13;;;;;;;13.22;100.00;100000.00;5109546;28;20093;-65
2023/07/26 04:46:47;;;;;;;10.98;7.65;;;;;;;13.26;100.00;100006.63;5109243;28;20036;-65
2023/07/26 04:49:12;;;;;;;10.25;7.63;;;;;;;13.30;100.00;100021.25;5109186;28;20047;-65
2023/07/26 04:51:38;;;;;;;10.27;7.95;;;;;;;13.33;100.00;100011.19;5109209;28;20032;-64
2023/07/26 04:54:05;;;;;;;9.95;8.00;;;;;;;13.37;100.00;100017.81;5109410;28;20112;-64
2023/07/26 04:56:31;;;;;;;9.20;7.30;;;;;;;13.40;100.00;100020.88;5108005;28;20040;-65
2023/07/26 04:58:56;;;;;;;10.75;7.47;;;;;;;13.37;100.00;100012.44;5108720;28;20050;-65
2023/07/26 05:01:23;;;;;;;10.52;6.45;;;;;;;13.39;100.00;100021.09;5108909;28;20374;-65
2023/07/26 05:03:49;;;;;;;10.73;6.45;;;;;;;13.39;100.00;100026.44;5109139;28;20499;-65
2023/07/26 05:06:15;;;;;;;7.90;6.43;;;;;;;13.41;100.00;100035.09;5108811;28;20043;-64
2023/07/26 05:08:40;;;;;;;9.15;6.90;;;;;;;13.42;100.00;100031.38;5108768;28;20526;-62
2023/07/26 05:11:05;;;;;;;11.57;7.35;;;;;;;13.43;100.00;100030.34;5109118;28;20032;-63
2023/07/26 05:13:31;;;;;;;8.55;6.45;;;;;;;13.44;100.00;100046.25;5108915;28;20142;-64
2023/07/26 05:15:57;;;;;;;9.05;5.78;;;;;;;13.42;100.00;100047.44;5109233;28;20485;-65
2023/07/26 05:18:22;;;;;;;7.47;5.97;;;;;;;13.40;100.00;100039.63;5108580;28;20047;-64
2023/07/26 05:20:51;;;;;;;9.20;6.50;;;;;;;13.42;100.00;100052.78;5108823;28;20036;-65
2023/07/26 05:23:17;;;;;;;8.40;5.95;;;;;;;13.45;100.00;100055.09;5108946;28;20508;-64
2023/07/26 05:25:43;;;;;;;10.40;5.53;;;;;;;13.46;100.00;100059.41;5108746;28;20044;-65
2023/07/26 05:28:08;;;;;;;8.82;5.82;;;;;;;13.41;100.00;100049.28;5108598;28;20039;-65
2023/07/26 05:30:41;;;;;;;6.78;5.13;;;;;;;13.44;100.00;100059.63;5108374;28;20032;-65
2023/07/26 05:33:07;;;;;;;5.93;5.00;;;;;;;13.44;100.00;100062.28;5099404;28;20165;-64
2023/07/26 05:35:33;;;;;;;7.25;5.43;;;;;;;13.46;100.00;100070.13;5094860;28;20036;-64
2023/07/26 05:37:59;;;;;;;6.93;5.90;;;;;;;13.47;100.00;100066.41;5094890;28;20402;-64
2023/07/26 05:40:24;;;;;;;6.35;5.43;;;;;;;13.49;100.00;100067.84;5094614;28;20435;-65
2023/07/26 05:42:50;;;;;;;8.07;5.68;;;;;;;13.53;100.00;100066.47;5094649;28;20035;-65
2023/07/26 05:45:18;;;;;;;8.35;5.35;;;;;;;13.57;100.00;100069.56;5094670;28;20040;-65
2023/07/26 05:47:43;;;;;;;7.57;4.82;;;;;;;13.63;100.00;100063.44;5094673;28;20040;-64
2023/07/26 05:50:10;;;;;;;7.70;5.07;;;;;;;13.66;100.00;100075.59;5094342;28;20043;-65
2023/07/26 05:52:36;;;;;;;6.50;4.60;;;;;;;13.67;100.00;100066.53;5094550;28;20043;-64
2023/07/26 05:55:02;;;;;;;6.97;5.15;;;;;;;13.76;100.00;100070.72;5094573;28;20043;-65
2023/07/26 05:57:28;;;;;;;6.32;4.78;;;;;;;13.82;100.00;100076.09;5094205;28;20028;-65
2023/07/26 05:59:53;;;;;;;5.03;4.32;;;;;;;13.84;100.00;100076.72;5094266;28;20028;-65
2023/07/26 06:02:18;;;;;;;9.30;5.18;;;;;;;13.90;100.00;100076.97;5094489;28;20514;-65
2023/07/26 06:04:48;;;;;;;6.97;4.93;;;;;;;13.86;100.00;100081.88;5094312;28;20044;-65
2023/07/26 06:07:15;;;;;;;5.13;4.40;;;;;;;13.84;100.00;100079.41;5094494;28;20447;-65
2023/07/26 06:09:40;;;;;;;9.88;5.07;;;;;;;13.88;100.00;100082.50;5093904;28;20048;-65
2023/07/26 06:12:06;;;;;;;6.20;5.05;;;;;;;13.89;100.00;100076.13;5094219;28;20042;-65
2023/07/26 06:14:31;;;;;;;6.60;4.85;;;;;;;13.95;100.00;100086.03;5094129;28;20123;-65
2023/07/26 06:16:58;;;;;;;9.95;5.13;;;;;;;13.94;100.00;100088.91;5094147;28;20154;-64
2023/07/26 06:19:23;;;;;;;8.73;4.20;;;;;;;13.96;100.00;100094.91;5094049;28;20123;-65
2023/07/26 06:21:49;;;;;;;4.82;4.32;;;;;;;13.91;100.00;100102.72;5094288;28;20111;-64
2023/07/26 06:24:15;;;;;;;5.70;4.82;;;;;;;13.93;100.00;100097.97;5094712;28;20036;-65
2023/07/26 06:26:40;;;;;;;6.13;4.68;;;;;;;13.88;100.00;100097.72;5093951;28;20043;-65
2023/07/26 06:29:06;;;;;;;5.28;4.20;;;;;;;13.92;100.00;100099.00;5093555;28;20086;-65
2023/07/26 06:31:31;;;;;;;8.25;4.47;;;;;;;13.90;100.00;100101.88;5094041;28;20537;-64
2023/07/26 06:33:56;;;;;;;5.25;4.32;;;;;;;13.94;100.00;100099.63;5093730;28;20040;-65
2023/07/26 06:36:22;;;;;;;5.63;4.45;;;;;;;13.91;100.00;100100.84;5093739;28;20073;-68
2023/07/26 06:38:47;;;;;;;6.70;4.97;;;;;;;13.85;100.00;100089.09;5093468;28;20534;-65
2023/07/26 06:41:13;;;;;;;5.30;4.30;;;;;;;14.00;100.00;100101.50;5093677;28;20036;-64
2023/07/26 06:43:38;;;;;;;6.60;4.38;;;;;;;14.01;100.00;100100.47;5091756;28;20028;-65
2023/07/26 06:46:03;;;;;;;6.47;4.75;;;;;;;13.99;100.00;100102.53;5093197;28;20492;-64
2023/07/26 06:48:29;;;;;;;9.45;5.78;;;;;;;14.04;100.00;100105.44;5093213;28;20039;-64
2023/07/26 06:50:54;;;;;;;6.03;4.68;;;;;;;14.10;100.00;100105.47;5093339;28;20480;-65
2023/07/26 06:53:20;;;;;;;5.32;4.57;;;;;;;14.10;100.00;100107.34;5093114;28;20672;-65
2023/07/26 06:55:45;;;;;;;5.43;4.43;;;;;;;14.04;100.00;100100.91;5089982;28;20044;-65
2023/07/26 06:58:11;;;;;;;6.32;4.47;;;;;;;14.16;100.00;100103.84;5084658;28;20047;-64
2023/07/26 07:00:36;;;;;;;5.65;5.05;;;;;;;14.08;100.00;100104.84;5077294;28;20394;-64
2023/07/26 07:03:03;;;;;;;7.75;4.57;;;;;;;14.12;100.00;100105.28;5073073;28;20036;-64
2023/07/26 07:05:29;;;;;;;6.63;4.18;;;;;;;14.18;100.00;100111.69;5072841;28;20040;-64
2023/07/26 07:07:55;;;;;;;5.78;4.35;;;;;;;14.21;100.00;100100.56;5073057;28;20032;-64
2023/07/26 07:10:22;;;;;;;6.65;4.13;;;;;;;14.25;100.00;100105.31;5072316;28;20086;-65
2023/07/26 07:12:47;;;;;;;8.90;4.45;;;;;;;14.32;100.00;100097.31;5087007;28;20043;-65
2023/07/26 07:15:13;;;;;;;7.13;4.35;;;;;;;14.31;100.00;100101.84;5092941;28;20040;-65
2023/07/26 07:17:38;;;;;;;6.25;4.75;;;;;;;14.39;100.00;100101.66;5093049;28;20137;-64
2023/07/26 07:20:06;;;;;;;7.25;4.55;;;;;;;14.40;100.00;100095.25;5092456;28;20032;-64
2023/07/26 07:22:32;;;;;;;6.00;4.07;;;;;;;14.44;100.00;100105.59;5092889;28;20047;-64
2023/07/26 07:24:58;;;;;;;5.65;4.30;;;;;;;14.35;100.00;100100.44;5092682;28;20036;-64
2023/07/26 07:27:24;;;;;;;6.47;4.00;;;;;;;14.35;100.00;100097.75;5092812;28;20093;-64
2023/07/26 07:29:50;;;;;;;5.88;4.53;;;;;;;14.38;100.00;100102.69;5092413;28;20043;-64
2023/07/26 07:32:16;;;;;;;6.82;4.60;;;;;;;14.35;100.00;100107.63;5092666;28;20039;-63
2023/07/26 07:34:41;;;;;;;5.30;4.20;;;;;;;14.37;100.00;100109.06;5092740;28;20040;-64
2023/07/26 07:37:07;;;;;;;5.90;4.50;;;;;;;14.33;100.00;100110.50;5092560;28;20039;-63
2023/07/26 07:39:32;;;;;;;6.47;4.47;;;;;;;14.35;100.00;100105.78;5092234;28;20040;-63
2023/07/26 07:41:57;;;;;;;8.88;4.65;;;;;;;14.23;100.00;100104.72;5092569;28;20093;-64
2023/07/26 07:44:23;;;;;;;7.93;5.50;;;;;;;14.15;100.00;100109.38;5092541;28;20504;-64
2023/07/26 07:46:49;;;;;;;6.90;5.07;;;;;;;14.15;100.00;100107.56;5092308;28;20042;-64
2023/07/26 07:49:14;;;;;;;5.60;4.63;;;;;;;14.08;100.00;100110.22;5092177;28;20048;-63
2023/07/26 07:51:39;;;;;;;7.82;5.63;;;;;;;14.05;100.00;100115.13;5092254;28;20039;-64
2023/07/26 07:54:05;;;;;;;6.25;5.05;;;;;;;13.99;100.00;100118.59;5092409;28;20051;-64
2023/07/26 07:56:30;;;;;;;6.15;5.07;;;;;;;13.97;100.00;100096.56;5091931;28;20040;-64
2023/07/26 07:58:56;;;;;;;9.85;5.60;;;;;;;14.01;100.00;100106.66;5092105;28;20040;-64
2023/07/26 08:01:21;;;;;;;6.80;5.25;;;;;;;14.01;100.00;100105.81;5092264;28;20020;-64
2023/07/26 08:03:47;;;;;;;6.57;5.65;;;;;;;14.07;100.00;100103.19;5092278;28;20035;-64
2023/07/26 08:06:13;;;;;;;8.18;6.00;;;;;;;14.15;100.00;100102.22;5092076;28;20451;-64
2023/07/26 08:08:39;;;;;;;7.32;5.15;;;;;;;14.30;100.00;100104.72;5091838;28;20040;-63
2023/07/26 08:11:06;;;;;;;8.18;5.18;;;;;;;14.39;100.00;100112.38;5091903;28;20779;-64
2023/07/26 08:13:32;;;;;;;5.65;5.10;;;;;;;14.45;100.00;100115.28;5092243;28;20036;-64
2023/07/26 08:15:58;;;;;;;6.15;4.82;;;;;;;14.49;100.00;100114.72;5092173;28;20040;-64
2023/07/26 08:18:23;;;;;;;7.88;5.10;;;;;;;14.55;100.00;100115.78;5091791;28;20046;-63
2023/07/26 08:20:48;;;;;;;7.47;5.15;;;;;;;14.51;100.00;100120.69;5091965;28;20423;-63
2023/07/26 08:23:14;;;;;;;6.85;5.20;;;;;;;14.65;100.00;100114.34;5090636;28;20051;-63
2023/07/26 08:25:40;;;;;;;7.57;4.63;;;;;;;14.73;100.00;100115.16;5091954;28;20056;-63
2023/07/26 08:28:05;;;;;;;5.95;4.18;;;;;;;14.86;100.00;100121.38;5092006;28;20054;-63
2023/07/26 08:30:31;;;;;;;4.30;3.90;;;;;;;14.82;100.00;100124.69;5091791;28;20146;-63
2023/07/26 08:32:57;;;;;;;6.57;4.45;;;;;;;14.95;100.00;100113.97;5091910;28;20123;-64
2023/07/26 08:35:23;;;;;;;6.93;4.55;;;;;;;14.93;100.00;100122.25;5091913;28;20032;-63
2023/07/26 08:37:49;;;;;;;6.43;4.30;;;;;;;14.96;100.00;100110.25;5091731;28;20044;-63
2023/07/26 08:40:14;;;;;;;4.30;3.90;;;;;;;14.96;100.00;100109.44;5091682;28;20048;-63
2023/07/26 08:42:41;;;;;;;7.13;4.25;;;;;;;15.09;100.00;100114.81;5091841;28;20067;-63
2023/07/26 08:45:07;;;;;;;6.20;4.90;;;;;;;15.27;100.00;100114.22;5091916;28;20040;-63
2023/07/26 08:47:35;;;;;;;6.53;4.23;;;;;;;15.47;100.00;100115.00;5091752;28;20039;-63
2023/07/26 08:50:00;;;;;;;6.82;4.32;;;;;;;15.67;100.00;100112.34;5091539;28;20039;-63
2023/07/26 08:52:27;;;;;;;4.40;3.85;;;;;;;15.83;100.00;100113.72;5091643;28;20040;-63
2023/07/26 08:54:53;;;;;;;4.55;4.00;;;;;;;15.99;100.00;100116.78;5091750;28;20130;-63
2023/07/26 08:57:19;;;;;;;4.90;4.10;;;;;;;16.13;100.00;100122.94;5091732;28;20032;-63
2023/07/26 08:59:45;;;;;;;5.50;4.25;;;;;;;16.35;100.00;100119.94;5091461;28;20154;-63
2023/07/26 09:02:13;;;;;;;4.85;3.65;;;;;;;16.59;100.00;100113.00;5091673;28;20524;-62
2023/07/26 09:04:39;;;;;;;4.88;3.45;;;;;;;16.58;100.00;100119.44;5091715;28;20032;-65
2023/07/26 09:07:05;;;;;;;5.07;3.33;;;;;;;16.52;100.00;100121.94;5091795;28;20040;-63
2023/07/26 09:09:32;;;;;;;3.80;3.20;;;;;;;16.52;100.00;100119.25;5095175;28;20122;-63
2023/07/26 09:11:58;;;;;;;3.13;2.80;;;;;;;16.60;100.00;100122.72;5095396;28;20047;-64
2023/07/26 09:14:28;;;;;;;5.18;3.60;;;;;;;16.59;100.00;100129.16;5095454;28;20040;-63
2023/07/26 09:16:56;;;;;;;3.25;2.88;;;;;;;16.61;100.00;100130.56;5095265;28;20039;-63
2023/07/26 09:19:27;;;;;;;5.05;3.45;;;;;;;16.61;100.00;100135.13;5095004;28;20036;-64
2023/07/26 09:21:57;;;;;;;4.97;3.10;;;;;;;16.71;100.00;100128.28;5095272;28;20032;-63
2023/07/26 09:24:28;;;;;;;4.25;3.25;;;;;;;16.90;100.00;100131.06;5095092;28;20040;-63
2023/07/26 09:27:03;;;;;;;4.10;2.90;;;;;;;16.84;100.00;100130.06;5095165;28;20039;-63
2023/07/26 09:29:28;;;;;;;3.50;3.20;;;;;;;16.78;100.00;100131.75;5094780;28;20051;-63
2023/07/26 09:31:54;;;;;;;4.00;3.60;;;;;;;16.59;100.00;100129.16;5094923;28;20386;-63
2023/07/26 09:34:19;;;;;;;11.70;4.10;;;;;;;16.54;100.00;100124.41;5094888;28;20495;-63
2023/07/26 09:36:49;;;;;;;3.38;2.92;;;;;;;16.50;100.00;100121.34;5094916;28;20079;-63
2023/07/26 09:39:16;;;;;;;3.63;3.15;;;;;;;16.51;100.00;100122.97;5094545;28;20409;-63
2023/07/26 09:41:42;;;;;;;4.18;2.88;;;;;;;16.57;100.00;100120.47;5094867;28;20478;-63
2023/07/26 09:44:18;;;;;;;5.22;3.08;;;;;;;16.61;100.00;100119.81;5094798;28;20096;-63
2023/07/26 09:46:55;;;;;;;3.47;2.80;;;;;;;16.66;100.00;100119.19;5094772;28;20405;-63
2023/07/26 09:49:22;;;;;;;5.65;3.10;;;;;;;16.81;100.00;100122.41;5094436;28;20040;-63
2023/07/26 09:51:48;;;;;;;4.15;2.67;;;;;;;17.00;100.00;100121.47;5094735;28;20051;-62
2023/07/26 09:54:14;;;;;;;3.25;2.55;;;;;;;17.37;100.00;100124.28;5094481;28;20047;-61
2023/07/26 09:56:41;;;;;;;3.58;2.72;;;;;;;17.70;99.42;100125.84;5094619;28;20024;-62
2023/07/26 09:59:11;;;;;;;5.53;2.83;;;;;;;18.07;100.00;100126.72;5094176;28;20040;-61
2023/07/26 10:01:44;;;;;;;5.05;2.72;;;;;;;18.53;100.00;100128.00;5094716;28;20039;-62
2023/07/26 10:04:12;;;;;;;2.58;2.38;;;;;;;18.67;97.24;100122.22;5094201;28;20046;-62
2023/07/26 10:06:39;;;;;;;3.08;2.40;;;;;;;18.47;93.96;100123.53;5094448;28;20040;-62
2023/07/26 10:09:05;;;;;;;2.80;2.25;;;;;;;18.80;92.20;100123.09;5093985;28;20040;-61
2023/07/26 10:11:31;;;;;;;2.97;2.28;;;;;;;19.11;89.84;100120.13;5094218;28;20048;-62
2023/07/26 10:13:59;;;;;;;2.60;1.90;;;;;;;19.50;90.10;100113.25;5094145;28;20118;-62
2023/07/26 10:16:25;;;;;;;4.07;2.15;;;;;;;19.50;85.36;100115.13;5085567;28;20052;-62
2023/07/26 10:18:53;;;;;;;2.70;1.98;;;;;;;19.83;89.26;100111.03;5081244;28;20097;-62
2023/07/26 10:21:20;;;;;;;4.97;1.90;;;;;;;20.42;91.28;100119.81;5081959;28;20032;-62
2023/07/26 10:23:48;;;;;;;3.00;1.83;;;;;;;20.75;77.91;100114.53;5082798;28;20119;-62
2023/07/26 10:26:15;;;;;;;3.78;1.83;;;;;;;20.88;75.19;100107.16;5083524;28;20545;-63
2023/07/26 10:28:42;;;;;;;2.03;1.83;;;;;;;20.32;75.54;100099.59;5081920;28;20579;-61
2023/07/26 10:31:08;;;;;;;3.00;1.70;;;;;;;20.03;74.84;100095.25;5081975;28;20485;-61
2023/07/26 10:33:43;;;;;;;2.15;1.70;;;;;;;19.85;77.17;100098.09;5083626;28;20112;-63
2023/07/26 10:36:10;;;;;;;4.72;1.83;;;;;;;20.08;79.92;100105.31;5083442;28;20043;-63
2023/07/26 10:38:39;;;;;;;2.90;2.00;;;;;;;19.85;77.81;100095.38;5083241;28;20036;-61
2023/07/26 10:41:25;;;;;;;3.55;1.77;;;;;;;19.99;78.66;100102.16;5081633;28;20029;-63
2023/07/26 10:44:20;;;;;;;3.08;1.80;;;;;;;19.79;78.18;100089.03;5082223;28;20374;-63
2023/07/26 10:47:03;;;;;;;2.13;1.73;;;;;;;20.02;73.17;100099.00;5072325;28;20424;-63
2023/07/26 10:49:33;;;;;;;2.53;1.85;;;;;;;20.38;73.10;100083.47;5082435;28;20142;-64
2023/07/26 10:52:04;;;;;;;2.10;1.90;;;;;;;20.49;74.12;100093.47;5082642;28;20036;-63
2023/07/26 10:54:39;;;;;;;2.40;1.80;;;;;;;20.86;75.46;100091.13;5082129;28;20039;-64
2023/07/26 10:57:26;;;;;;;2.55;1.70;;;;;;;21.29;67.35;100093.25;5082853;28;20036;-63
2023/07/26 11:00:10;;;;;;;2.40;2.00;;;;;;;21.06;64.24;100087.94;5087547;28;20542;-64
2023/07/26 11:02:48;;;;;;;5.82;2.35;;;;;;;21.35;63.21;100083.31;5093467;28;20032;-64
2023/07/26 11:05:21;;;;;;;2.40;1.90;;;;;;;21.21;72.91;100080.09;5093219;28;20043;-64
2023/07/26 11:07:54;;;;;;;2.63;1.80;;;;;;;21.08;69.35;100089.38;5093244;28;20036;-63
2023/07/26 11:10:31;;;;;;;3.90;2.03;;;;;;;20.54;67.44;100086.28;5092624;28;20039;-64
2023/07/26 11:13:16;;;;;;;2.40;2.03;;;;;;;20.09;69.57;100079.94;5093143;28;20034;-64
2023/07/26 11:15:46;;;;;;;3.30;2.00;;;;;;;19.94;67.70;100080.44;5092897;28;20439;-64
2023/07/26 11:18:13;;;;;;;3.05;1.90;;;;;;;19.63;71.74;100081.69;5092986;28;20028;-63
2023/07/26 11:20:50;;;;;;;5.03;2.22;;;;;;;19.40;74.64;100085.16;5092517;28;20477;-63
2023/07/26 11:23:18;;;;;;;2.45;2.00;;;;;;;19.21;74.54;100081.75;5092984;28;20032;-63
2023/07/26 11:25:52;;;;;;;3.35;2.30;;;;;;;18.92;76.30;100088.88;5092797;28;20039;-62
2023/07/26 11:28:18;;;;;;;1.77;1.65;;;;;;;18.81;75.52;100093.19;5092565;28;20043;-63
2023/07/26 11:30:52;;;;;;;3.53;2.35;;;;;;;18.80;77.43;100086.16;5092050;28;20078;-63
2023/07/26 11:33:25;;;;;;;4.38;2.05;;;;;;;18.94;77.64;100079.47;5092584;28;20056;-64
2023/07/26 11:35:51;;;;;;;5.50;2.30;;;;;;;19.39;75.78;100078.13;5092663;28;20036;-63
2023/07/26 11:38:16;;;;;;;4.32;2.13;;;;;;;19.86;75.32;100070.00;5091237;28;20552;-64
2023/07/26 11:40:43;;;;;;;4.75;2.25;;;;;;;20.24;69.56;100072.94;5092678;28;20032;-63
2023/07/26 11:43:09;;;;;;;2.83;1.80;;;;;;;20.37;67.09;100071.84;5091232;28;20040;-64
2023/07/26 11:45:38;;;;;;;7.63;2.50;;;;;;;20.72;69.39;100066.28;5092522;28;20040;-63
2023/07/26 11:48:10;;;;;;;4.50;2.50;;;;;;;20.98;69.25;100064.81;5092368;28;20052;-64
2023/07/26 11:50:37;;;;;;;2.88;2.00;;;;;;;21.08;63.66;100056.06;5092300;28;20040;-63
2023/07/26 11:53:11;;;;;;;4.22;2.50;;;;;;;20.99;63.02;100055.63;5092286;28;20397;-63
2023/07/26 11:55:41;;;;;;;2.72;1.98;;;;;;;20.67;60.21;100065.34;5092377;28;20036;-64
2023/07/26 11:58:10;;;;;;;4.60;2.38;;;;;;;20.42;61.65;100068.41;5092340;28;20057;-64
2023/07/26 12:00:40;;;;;;;5.93;2.42;;;;;;;20.31;65.95;100065.50;5092144;28;20036;-64
2023/07/26 12:03:09;;;;;;;3.83;2.05;;;;;;;20.14;61.45;100078.13;5092397;28;20080;-64
2023/07/26 12:05:35;;;;;;;2.72;1.98;;;;;;;19.93;63.62;100074.19;5092291;28;20044;-62
2023/07/26 12:08:04;;;;;;;3.65;2.60;;;;;;;19.90;65.49;100074.69;5092369;28;20084;-63
2023/07/26 12:10:34;;;;;;;4.45;2.20;;;;;;;20.16;62.16;100077.91;5091945;28;20044;-64
2023/07/26 12:13:04;;;;;;;3.17;2.15;;;;;;;20.08;63.37;100076.41;5090803;28;20032;-62
2023/07/26 12:15:30;;;;;;;2.85;2.30;;;;;;;20.21;62.40;100078.84;5091007;28;20047;-63
2023/07/26 12:17:58;;;;;;;4.18;2.13;;;;;;;20.73;64.08;100078.72;5091944;28;20027;-64
2023/07/26 12:20:25;;;;;;;3.80;2.47;;;;;;;21.37;61.27;100087.41;5091731;28;20496;-63
2023/07/26 12:22:52;;;;;;;4.18;2.40;;;;;;;21.55;60.59;100080.91;5092046;28;20111;-63
2023/07/26 12:25:18;;;;;;;;;;;;;;;21.42;56.79;100093.97;5092497;28;20032;-63
2023/07/26 12:27:43;;;;;;;5.90;2.40;;;;;;;20.98;56.33;100091.06;5088342;28;19984;-63
2023/07/26 12:30:13;;;;;;;4.97;2.72;;;;;;;20.79;58.42;100098.59;5080524;28;20409;-64
2023/07/26 12:32:38;;;;;;;4.38;2.42;;;;;;;20.49;56.31;100093.47;5079549;28;20035;-63
2023/07/26 12:35:22;;;;;;;4.85;2.88;;;;;;;20.43;58.79;100084.41;5082422;28;20488;-63
2023/07/26 12:37:52;;;;;;;3.75;2.85;;;;;;;20.32;59.18;100082.56;5080444;28;20450;-63
2023/07/26 12:40:19;;;;;;;6.28;2.38;;;;;;;20.26;60.67;100084.34;5079249;28;20493;-63
2023/07/26 12:42:45;;;;;;;4.97;2.38;;;;;;;20.43;64.89;100073.56;5083830;28;20038;-63
2023/07/26 12:45:10;;;;;;;6.18;2.95;;;;;;;20.51;58.08;100088.63;5084737;28;20489;-63
2023/07/26 12:47:36;;;;;;;6.63;3.00;;;;;;;20.61;58.79;100085.31;5085182;28;20032;-63
2023/07/26 12:50:01;;;;;;;5.28;2.28;;;;;;;20.66;53.87;100088.91;5085947;28;20127;-63
2023/07/26 12:52:27;;;;;;;5.40;2.80;;;;;;;20.92;53.30;100090.16;5084338;28;20135;-61
2023/07/26 12:54:52;;;;;;;6.35;3.05;;;;;;;20.91;55.05;100085.81;5085413;28;20036;-63
2023/07/26 12:57:18;;;;;;;7.88;3.42;;;;;;;21.01;58.88;100096.84;5084661;28;20054;-63
2023/07/26 12:59:43;;;;;;;4.88;2.42;;;;;;;20.93;55.28;100099.09;5092371;28;20515;-62
2023/07/26 13:02:09;;;;;;;6.30;2.63;;;;;;;20.85;54.96;100092.22;5095644;28;20031;-63
2023/07/26 13:04:34;;;;;;;5.45;3.13;;;;;;;20.80;56.52;100097.53;5080706;28;20032;-63
2023/07/26 13:06:59;;;;;;;6.82;3.05;;;;;;;20.87;56.80;100092.81;5075221;28;20436;-63
2023/07/26 13:09:25;;;;;;;3.47;2.35;;;;;;;21.52;57.45;100081.41;5074780;28;20063;-63
2023/07/26 13:11:50;;;;;;;5.03;2.78;;;;;;;21.87;53.15;100086.50;5075015;28;20452;-64
2023/07/26 13:14:15;;;;;;;5.07;2.70;;;;;;;22.42;52.49;100088.25;5074958;28;20040;-63
2023/07/26 13:16:41;;;;;;;5.75;2.75;;;;;;;22.71;50.50;100080.69;5075131;28;20055;-63
2023/07/26 13:19:06;;;;;;;5.15;2.53;;;;;;;23.54;48.99;100072.94;5075151;28;20040;-63
2023/07/26 13:21:32;;;;;;;6.55;2.90;;;;;;;24.28;47.29;100073.84;5075328;28;20040;-63
2023/07/26 13:23:58;;;;;;;6.22;3.35;;;;;;;24.43;47.74;100084.78;5075333;28;20069;-63
2023/07/26 13:26:24;;;;;;;5.18;2.30;;;;;;;24.21;44.94;100084.16;5075086;28;20044;-63
2023/07/26 13:28:50;;;;;;;5.40;2.65;;;;;;;24.17;43.14;100083.88;5075170;28;20056;-63
2023/07/26 13:31:16;;;;;;;9.32;2.63;;;;;;;24.01;42.96;100083.00;5074797;28;20461;-63
2023/07/26 13:33:41;;;;;;;9.32;3.30;;;;;;;23.38;45.62;100087.50;5074896;28;20481;-63
2023/07/26 13:36:07;;;;;;;4.40;2.70;;;;;;;23.50;45.37;100076.44;5074628;28;20055;-62
2023/07/26 13:38:32;;;;;;;7.95;2.90;;;;;;;23.27;47.46;100086.59;5074473;28;20060;-63
2023/07/26 13:40:58;;;;;;;5.53;3.08;;;;;;;22.84;48.08;100087.59;5074656;28;20112;-63
2023/07/26 13:43:23;;;;;;;6.47;2.90;;;;;;;22.98;47.63;100082.59;5074639;28;20036;-62
2023/07/26 13:45:49;;;;;;;5.22;3.17;;;;;;;22.56;47.68;100080.56;5074421;28;20435;-63
2023/07/26 13:48:14;;;;;;;5.95;2.78;;;;;;;22.38;46.96;100076.28;5074388;28;20082;-63
2023/07/26 13:50:39;;;;;;;4.70;3.05;;;;;;;22.46;49.11;100081.25;5074228;28;20040;-62
2023/07/26 13:53:05;;;;;;;7.68;2.97;;;;;;;22.26;47.83;100081.03;5073941;28;20064;-63
2023/07/26 13:55:30;;;;;;;4.57;2.47;;;;;;;22.29;49.78;100080.50;5074172;28;20128;-63
2023/07/26 13:57:55;;;;;;;5.43;2.60;;;;;;;22.35;48.28;100087.63;5074322;28;20082;-63
2023/07/26 14:00:21;;;;;;;4.65;2.70;;;;;;;22.02;49.74;100087.75;5073881;28;20044;-63
2023/07/26 14:02:46;;;;;;;6.07;3.47;;;;;;;21.87;48.25;100091.09;5074266;28;20132;-63
2023/07/26 14:05:12;;;;;;;4.20;2.58;;;;;;;21.74;49.67;100097.69;5074020;28;20094;-62
2023/07/26 14:07:38;;;;;;;4.03;2.65;;;;;;;21.27;49.69;100095.34;5074143;28;20064;-63
2023/07/26 14:10:03;;;;;;;6.68;3.28;;;;;;;20.75;51.74;100108.28;5073704;28;20540;-63
2023/07/26 14:12:29;;;;;;;6.25;3.20;;;;;;;20.46;54.02;100119.09;5074188;28;20078;-63
2023/07/26 14:14:54;;;;;;;8.05;3.58;;;;;;;20.28;55.90;100125.50;5074223;28;20040;-63
2023/07/26 14:17:20;;;;;;;4.82;3.13;;;;;;;20.04;58.51;100127.44;5073678;28;20036;-63
2023/07/26 14:19:45;;;;;;;6.53;3.55;;;;;;;19.95;60.24;100115.34;5073633;28;20043;-62
2023/07/26 14:22:11;;;;;;;3.53;2.60;;;;;;;19.97;59.02;100118.63;5073676;28;20032;-62
2023/07/26 14:24:36;;;;;;;5.25;2.75;;;;;;;19.98;59.03;100120.28;5073875;28;20141;-62
2023/07/26 14:27:01;;;;;;;3.80;2.53;;;;;;;20.13;56.90;100127.06;5073651;28;20046;-63
2023/07/26 14:29:27;;;;;;;6.35;2.38;;;;;;;20.06;54.70;100127.19;5073458;28;20245;-62
2023/07/26 14:31:53;;;;;;;3.58;2.10;;;;;;;20.12;55.67;100120.00;5073491;28;20482;-62
2023/07/26 14:34:19;;;;;;;3.85;2.47;;;;;;;20.37;54.21;100122.41;5073603;28;20108;-62
2023/07/26 14:36:44;;;;;;;4.35;2.17;;;;;;;20.42;54.11;100119.81;5073570;28;20040;-62
2023/07/26 14:39:10;;;;;;;7.63;2.55;;;;;;;20.51;55.26;100121.91;5071962;28;20093;-62
2023/07/26 14:41:35;;;;;;;3.08;2.08;;;;;;;20.45;53.06;100120.16;5073390;28;20639;-62
2023/07/26 14:44:00;;;;;;;4.20;2.35;;;;;;;20.59;52.54;100109.88;5073424;28;20100;-62
2023/07/26 14:46:26;;;;;;;4.32;2.50;;;;;;;20.61;51.97;100110.47;5073211;28;20035;-62
2023/07/26 14:48:51;;;;;;;3.60;1.75;;;;;;;20.48;50.06;100108.06;5072996;28;20045;-62
2023/07/26 14:51:17;;;;;;;3.08;2.00;;;;;;;20.35;50.79;100111.84;5072962;28;20086;-63
2023/07/26 14:53:42;;;;;;;4.50;1.90;;;;;;;20.24;51.00;100104.56;5073211;28;20037;-61
2023/07/26 14:56:07;;;;;;;5.38;2.00;;;;;;;20.28;50.62;100111.97;5073144;28;20044;-63
2023/07/26 14:58:33;;;;;;;3.75;2.30;;;;;;;20.37;53.65;100106.19;5072802;28;20036;-63
2023/07/26 15:00:58;;;;;;;2.78;1.83;;;;;;;20.46;52.29;100104.75;5073083;28;20040;-63
2023/07/26 15:03:24;;;;;;;4.05;2.08;;;;;;;20.48;51.53;100108.06;5072910;28;20071;-63
2023/07/26 15:05:49;;;;;;;4.28;1.92;;;;;;;20.53;51.09;100108.13;5072033;28;20044;-63
2023/07/26 15:08:15;;;;;;;3.00;1.85;;;;;;;20.58;53.14;100106.34;5071256;28;20036;-64
2023/07/26 15:10:41;;;;;;;3.97;2.25;;;;;;;20.63;50.77;100110.22;5072789;28;20487;-62
2023/07/26 15:13:07;;;;;;;4.20;1.85;;;;;;;20.55;51.16;100109.56;5072724;28;20112;-64
2023/07/26 15:15:32;;;;;;;3.50;2.10;;;;;;;20.48;51.45;100108.06;5072707;28;20128;-62
2023/07/26 15:17:58;;;;;;;3.03;1.67;;;;;;;20.43;52.10;100107.94;5072541;28;20493;-63
2023/07/26 15:20:23;;;;;;;3.28;2.00;;;;;;;20.44;52.54;100101.44;5072237;28;20044;-63
2023/07/26 15:22:52;;;;;;;2.67;1.73;;;;;;;20.38;51.28;100107.81;5071426;28;20035;-64
2023/07/26 15:25:20;;;;;;;4.07;2.05;;;;;;;20.23;51.61;100101.06;5072532;28;20070;-63
2023/07/26 15:27:46;;;;;;;2.65;1.77;;;;;;;20.14;52.24;100109.75;5072479;28;20523;-64
2023/07/26 15:30:11;;;;;;;3.25;2.17;;;;;;;20.15;52.80;100104.13;5072261;28;20056;-63
2023/07/26 15:32:37;;;;;;;4.03;2.35;;;;;;;20.11;52.70;100105.66;5072222;28;20033;-63
2023/07/26 15:35:03;;;;;;;4.13;1.90;;;;;;;20.14;51.94;100102.47;5072361;28;20063;-63
2023/07/26 15:37:28;;;;;;;3.28;2.10;;;;;;;20.10;52.54;100106.72;5072109;28;20028;-63
2023/07/26 15:39:54;;;;;;;3.13;2.13;;;;;;;20.14;52.40;100107.06;5072037;28;20354;-63
2023/07/26 15:42:19;;;;;;;3.53;2.20;;;;;;;20.21;53.44;100103.19;5072191;28;20123;-64